Time;durP1;ratioP1;P1;durP2;ratioP2;P2;SDS_P1;SDS_P2;PMS_P1;PMS_P2;Temp;Humidity;BMP_temperature;BMP_pressure;BME280_temperature;BME280_humidity;BME280_pressure;Samples;Min_cycle;Max_cycle;Signal;HPM_P1;HPM_P2
2021/12/06 19:36:24;;;;;;;;;;;;;;;;;;5149794;27;19919;-71
2021/12/06 19:38:49;;;;;;;;;;;4.30;99.90;;;;;;5115178;27;19912;-68
2021/12/06 19:41:16;;;;;;;;;;;4.30;99.90;;;;;;5130526;28;19911;-68
2021/12/06 19:43:42;;;;;;;;;;;4.20;99.90;;;;;;5111791;28;19957;-68
2021/12/06 19:46:08;;;;;;;;;;;4.30;99.90;;;;;;5137304;27;19912;-68
2021/12/06 19:48:34;;;;;;;;;;;;;;;;;;5129698;27;19926;-69
2021/12/06 19:51:02;;;;;;;;;;;4.20;99.90;;;;;;5131266;27;19941;-68
2021/12/06 19:53:28;;;;;;;;;;;;;;;;;;5134789;27;19957;-68
2021/12/06 19:55:54;;;;;;;;;;;;;;;;;;5111359;28;20011;-69
2021/12/06 19:58:22;;;;;;;;;;;4.10;99.90;;;;;;5129431;28;19924;-68
2021/12/06 20:00:48;;;;;;;;;;;4.10;99.90;;;;;;5129552;27;20006;-68
2021/12/06 20:03:14;;;;;;;;;;;4.00;99.90;;;;;;5114098;28;19965;-68
2021/12/06 20:05:41;;;;;;;;;;;4.00;99.90;;;;;;5129920;27;20263;-68
2021/12/06 20:08:08;;;;;;;;;;;4.00;99.90;;;;;;5130395;27;19911;-68
2021/12/06 20:10:34;;;;;;;;;;;;;;;;;;5122542;28;19915;-73
2021/12/06 20:13:01;;;;;;;;;;;4.00;99.90;;;;;;5130299;28;19914;-68
2021/12/06 20:15:27;;;;;;;;;;;3.90;99.90;;;;;;5130210;27;19931;-68
2021/12/06 20:17:54;;;;;;;;;;;3.90;99.90;;;;;;5129547;28;19904;-68
2021/12/06 20:20:21;;;;;;;;;;;;;;;;;;5135037;27;19943;-69
2021/12/06 20:22:47;;;;;;;;;;;3.90;99.90;;;;;;5112108;27;19919;-68
2021/12/06 20:25:15;;;;;;;;;;;3.90;99.90;;;;;;5131716;27;20374;-69
2021/12/06 20:27:41;;;;;;;;;;;3.90;99.90;;;;;;5135008;27;20371;-69
2021/12/06 20:30:07;;;;;;;;;;;3.80;99.90;;;;;;5135210;27;20371;-69
2021/12/06 20:32:34;;;;;;;;;;;;;;;;;;5112413;28;19919;-76
2021/12/06 20:34:59;;;;;;;;;;;3.70;99.90;;;;;;5115462;27;19919;-70
2021/12/06 20:37:25;;;;;;;;;;;3.60;99.90;;;;;;5150884;27;19968;-70
2021/12/06 20:39:51;;;;;;;;;;;;;;;;;;5139869;27;19911;-69
2021/12/06 20:42:17;;;;;;;;;;;3.70;99.90;;;;;;5111401;28;20371;-70
2021/12/06 20:44:43;;;;;;;;;;;3.50;99.90;;;;;;5119740;27;20387;-70
2021/12/06 20:47:08;;;;;;;;;;;3.50;99.90;;;;;;5138195;27;19932;-70
2021/12/06 20:49:34;;;;;;;;;;;;;;;;;;5129436;27;20359;-76
2021/12/06 20:52:00;;;;;;;;;;;3.40;99.90;;;;;;5102870;28;19912;-70
2021/12/06 20:54:25;;;;;;;;;;;3.30;99.90;;;;;;5115029;28;20380;-70
2021/12/06 20:56:52;;;;;;;;;;;3.30;99.90;;;;;;5114389;27;19947;-70
2021/12/06 20:59:19;;;;;;;;;;;;;;;;;;5113124;28;19912;-70
2021/12/06 21:01:45;;;;;;;;;;;3.20;99.90;;;;;;5096041;28;19912;-70
2021/12/06 21:04:11;;;;;;;;;;;3.20;99.90;;;;;;5097245;28;19911;-69
2021/12/06 21:06:37;;;;;;;;;;;;;;;;;;5115012;28;19916;-74
2021/12/06 21:09:03;;;;;;;;;;;;;;;;;;5115578;28;19908;-71
2021/12/06 21:11:38;;;;;;;;;;;3.00;99.90;;;;;;5126177;27;19918;-70
2021/12/06 21:14:36;;;;;;;;;;;3.00;99.90;;;;;;5117740;27;19976;-70
2021/12/06 21:16:50;;;;;;;;;;;3.00;99.90;;;;;;5133329;27;19919;-69
2021/12/06 21:19:16;;;;;;;;;;;2.90;99.90;;;;;;5131149;27;20035;-69
2021/12/06 21:21:44;;;;;;;;;;;3.00;99.90;;;;;;5114221;28;19908;-70
2021/12/06 21:24:11;;;;;;;;;;;2.90;99.90;;;;;;5116367;27;19912;-69
2021/12/06 21:26:37;;;;;;;;;;;;;;;;;;5116480;27;19915;-74
2021/12/06 21:29:03;;;;;;;;;;;;;;;;;;5131452;27;19908;-70
2021/12/06 21:31:29;;;;;;;;;;;2.80;99.90;;;;;;5096683;28;19912;-69
2021/12/06 21:33:54;;;;;;;;;;;2.70;99.90;;;;;;5095716;28;20594;-70
2021/12/06 21:36:22;;;;;;;;;;;;;;;;;;5109573;28;19912;-72
2021/12/06 21:38:48;;;;;;;;;;;2.70;99.90;;;;;;5092171;28;19968;-69
2021/12/06 21:41:13;;;;;;;;;;;2.70;99.90;;;;;;5096507;28;20010;-69
2021/12/06 21:43:39;;;;;;;;;;;;;;;;;;5114863;27;19908;-75
2021/12/06 21:46:05;;;;;;;;;;;2.60;99.90;;;;;;5092801;28;19911;-68
2021/12/06 21:48:31;;;;;;;;;;;;;;;;;;5096687;28;20251;-71
2021/12/06 21:50:57;;;;;;;;;;;2.50;99.90;;;;;;5127122;27;19911;-69
2021/12/06 21:53:23;;;;;;;;;;;2.50;99.90;;;;;;5114604;27;20446;-69
2021/12/06 21:55:49;;;;;;;;;;;2.40;99.90;;;;;;5113765;28;20018;-70
2021/12/06 21:58:14;;;;;;;;;;;2.30;99.90;;;;;;5114225;28;19918;-69
2021/12/06 22:00:41;;;;;;;;;;;2.30;99.90;;;;;;5112338;27;19911;-70
2021/12/06 22:03:09;;;;;;;;;;;2.30;99.90;;;;;;5114572;28;19908;-71
2021/12/06 22:05:37;;;;;;;;;;;2.30;99.90;;;;;;5097129;27;20339;-70
2021/12/06 22:08:04;;;;;;;;;;;2.20;99.90;;;;;;5115126;27;19958;-70
2021/12/06 22:10:30;;;;;;;;;;;2.20;99.90;;;;;;5114224;28;19912;-70
2021/12/06 22:12:55;;;;;;;;;;;2.20;99.90;;;;;;5113950;28;19931;-70
2021/12/06 22:15:21;;;;;;;;;;;2.10;99.90;;;;;;5114093;28;19915;-69
2021/12/06 22:17:49;;;;;;;;;;;2.10;99.90;;;;;;5113294;28;19941;-70
2021/12/06 22:20:15;;;;;;;;;;;2.10;99.90;;;;;;5126505;27;20363;-69
2021/12/06 22:22:41;;;;;;;;;;;;;;;;;;5133582;27;19915;-77
2021/12/06 22:25:08;;;;;;;;;;;2.10;99.90;;;;;;5115695;27;19918;-69
2021/12/06 22:27:35;;;;;;;;;;;2.10;99.90;;;;;;5116365;27;19908;-70
2021/12/06 22:30:10;;;;;;;;;;;2.20;99.90;;;;;;5129554;27;20411;-70
2021/12/06 22:32:36;;;;;;;;;;;2.20;99.90;;;;;;5134181;27;19994;-70
2021/12/06 22:35:03;;;;;;;;;;;2.20;99.90;;;;;;5130884;27;20020;-70
2021/12/06 22:37:28;;;;;;;;;;;2.10;99.90;;;;;;5113656;27;19916;-70
2021/12/06 22:39:54;;;;;;;;;;;2.20;99.90;;;;;;5114310;27;19918;-70
2021/12/06 22:42:21;;;;;;;;;;;;;;;;;;5134262;27;19907;-70
2021/12/06 22:44:47;;;;;;;;;;;2.20;99.90;;;;;;5124576;27;19911;-70
2021/12/06 22:47:15;;;;;;;;;;;2.20;99.90;;;;;;5094902;28;19954;-70
2021/12/06 22:49:40;;;;;;;;;;;;;;;;;;5102120;28;20023;-75
2021/12/06 22:52:06;;;;;;;;;;;2.30;99.90;;;;;;5122763;27;20417;-70
2021/12/06 22:54:32;;;;;;;;;;;2.20;99.90;;;;;;5134271;27;19966;-69
2021/12/06 22:56:57;;;;;;;;;;;2.30;99.90;;;;;;5127619;27;20371;-70
2021/12/06 22:59:23;;;;;;;;;;;2.30;99.90;;;;;;5110401;28;19909;-70
2021/12/06 23:01:48;;;;;;;;;;;2.30;99.90;;;;;;5118986;27;19943;-70
2021/12/06 23:04:14;;;;;;;;;;;2.40;99.90;;;;;;5133669;27;19964;-70
2021/12/06 23:06:40;;;;;;;;;;;;;;;;;;5120788;27;19922;-73
2021/12/06 23:09:07;;;;;;;;;;;2.60;99.90;;;;;;5112384;28;19999;-69
2021/12/06 23:11:33;;;;;;;;;;;2.70;99.90;;;;;;5132904;27;19977;-69
2021/12/06 23:14:01;;;;;;;;;;;2.80;99.90;;;;;;5133257;27;19914;-70
2021/12/06 23:16:27;;;;;;;;;;;2.90;99.90;;;;;;5096638;28;19912;-70
2021/12/06 23:18:52;;;;;;;;;;;3.00;99.90;;;;;;5112946;28;19907;-70
2021/12/06 23:21:18;;;;;;;;;;;3.10;99.90;;;;;;5112960;28;19954;-69
2021/12/06 23:23:44;;;;;;;;;;;3.20;99.90;;;;;;5112643;28;20347;-69
2021/12/06 23:26:10;;;;;;;;;;;3.20;99.90;;;;;;5096235;28;19912;-70
2021/12/06 23:28:36;;;;;;;;;;;3.30;99.90;;;;;;5113326;28;19915;-69
2021/12/06 23:31:05;;;;;;;;;;;3.30;99.90;;;;;;5113628;28;19999;-69
2021/12/06 23:33:31;;;;;;;;;;;3.30;99.90;;;;;;5113166;28;19915;-69
2021/12/06 23:35:59;;;;;;;;;;;3.30;99.90;;;;;;5105992;28;19919;-69
2021/12/06 23:38:35;;;;;;;;;;;3.10;99.90;;;;;;5113077;28;19912;-70
2021/12/06 23:48:44;;;;;;;;;;;;;;;;;;5133472;28;19907;-76
2021/12/06 23:51:09;;;;;;;;;;;3.00;99.90;;;;;;5128668;28;19999;-70
2021/12/06 23:53:35;;;;;;;;;;;3.10;99.90;;;;;;5113394;28;19908;-70
2021/12/06 23:56:04;;;;;;;;;;;3.00;99.90;;;;;;5094329;28;19916;-70
2021/12/06 23:58:30;;;;;;;;;;;3.00;99.90;;;;;;5094862;28;19964;-70
